sensor_id;sensor_type;location;lat;lon;timestamp;pressure;altitude;pressure_sealevel;temperature
64600;BMP280;6553;48.412;9.514;2022-09-09T00:02:00;72051.00;;;23.48
64600;BMP280;6553;48.412;9.514;2022-09-09T00:04:34;72051.50;;;23.49
64600;BMP280;6553;48.412;9.514;2022-09-09T00:07:15;72048.72;;;23.49
64600;BMP280;6553;48.412;9.514;2022-09-09T00:10:00;72051.00;;;23.48
64600;BMP280;6553;48.412;9.514;2022-09-09T00:13:16;72048.72;;;23.49
64600;BMP280;6553;48.412;9.514;2022-09-09T00:16:04;72050.56;;;23.45
64600;BMP280;6553;48.412;9.514;2022-09-09T00:19:00;72049.38;;;23.47
64600;BMP280;6553;48.412;9.514;2022-09-09T00:21:38;72045.53;;;23.46
64600;BMP280;6553;48.412;9.514;2022-09-09T00:24:44;72045.53;;;23.46
64600;BMP280;6553;48.412;9.514;2022-09-09T00:27:47;72051.09;;;23.46
64600;BMP280;6553;48.412;9.514;2022-09-09T00:30:20;72043.97;;;23.44
64600;BMP280;6553;48.412;9.514;2022-09-09T00:33:00;72048.31;;;23.46
64600;BMP280;6553;48.412;9.514;2022-09-09T00:35:38;72050.06;;;23.45
64600;BMP280;6553;48.412;9.514;2022-09-09T00:38:17;72044.50;;;23.45
64600;BMP280;6553;48.412;9.514;2022-09-09T00:40:59;72047.78;;;23.45
64600;BMP280;6553;48.412;9.514;2022-09-09T00:43:32;72042.34;;;23.43
64600;BMP280;6553;48.412;9.514;2022-09-09T00:49:20;72045.66;;;23.43
64600;BMP280;6553;48.412;9.514;2022-09-09T00:57:58;72052.41;;;23.42
64600;BMP280;6553;48.412;9.514;2022-09-09T01:00:30;72043.03;;;23.41
64600;BMP280;6553;48.412;9.514;2022-09-09T01:06:11;72040.22;;;23.41
64600;BMP280;6553;48.412;9.514;2022-09-09T01:17:31;72050.84;;;23.40
64600;BMP280;6553;48.412;9.514;2022-09-09T01:20:24;72040.88;;;23.39
64600;BMP280;6553;48.412;9.514;2022-09-09T01:26:25;72034.75;;;23.38
64600;BMP280;6553;48.412;9.514;2022-09-09T01:28:53;72043.66;;;23.39
64600;BMP280;6553;48.412;9.514;2022-09-09T01:31:39;72038.09;;;23.39
64600;BMP280;6553;48.412;9.514;2022-09-09T01:34:15;72039.81;;;23.38
64600;BMP280;6553;48.412;9.514;2022-09-09T01:36:59;72043.25;;;23.36
64600;BMP280;6553;48.412;9.514;2022-09-09T01:39:27;72042.09;;;23.37
64600;BMP280;6553;48.412;9.514;2022-09-09T01:42:01;72037.69;;;23.36
64600;BMP280;6553;48.412;9.514;2022-09-09T01:44:29;72032.66;;;23.36
64600;BMP280;6553;48.412;9.514;2022-09-09T01:46:56;72042.72;;;23.35
64600;BMP280;6553;48.412;9.514;2022-09-09T01:49:22;72039.94;;;23.35
64600;BMP280;6553;48.412;9.514;2022-09-09T01:51:54;72037.69;;;23.36
64600;BMP280;6553;48.412;9.514;2022-09-09T01:54:31;72041.00;;;23.36
64600;BMP280;6553;48.412;9.514;2022-09-09T01:57:23;72041.56;;;23.37
64600;BMP280;6553;48.412;9.514;2022-09-09T02:00:07;72038.22;;;23.36
64600;BMP280;6553;48.412;9.514;2022-09-09T02:03:05;72036.75;;;23.32
64600;BMP280;6553;48.412;9.514;2022-09-09T02:09:10;72038.38;;;23.34
64600;BMP280;6553;48.412;9.514;2022-09-09T02:11:38;72035.69;;;23.31
64600;BMP280;6553;48.412;9.514;2022-09-09T02:14:30;72035.56;;;23.34
64600;BMP280;6553;48.412;9.514;2022-09-09T02:17:09;72037.44;;;23.30
64600;BMP280;6553;48.412;9.514;2022-09-09T02:20:03;72031.19;;;23.32
64600;BMP280;6553;48.412;9.514;2022-09-09T02:22:44;72032.25;;;23.33
64600;BMP280;6553;48.412;9.514;2022-09-09T02:25:17;72036.75;;;23.32
64600;BMP280;6553;48.412;9.514;2022-09-09T02:27:48;72032.88;;;23.31
64600;BMP280;6553;48.412;9.514;2022-09-09T02:30:16;72031.72;;;23.33
64600;BMP280;6553;48.412;9.514;2022-09-09T02:32:52;72032.88;;;23.31
64600;BMP280;6553;48.412;9.514;2022-09-09T02:35:25;72034.09;;;23.30
64600;BMP280;6553;48.412;9.514;2022-09-09T02:37:56;72028.00;;;23.29
64600;BMP280;6553;48.412;9.514;2022-09-09T02:40:25;72028.53;;;23.30
64600;BMP280;6553;48.412;9.514;2022-09-09T02:42:58;72028.53;;;23.30
64600;BMP280;6553;48.412;9.514;2022-09-09T02:45:35;72033.56;;;23.29
64600;BMP280;6553;48.412;9.514;2022-09-09T02:48:31;72028.53;;;23.30
64600;BMP280;6553;48.412;9.514;2022-09-09T02:51:18;72030.78;;;23.29
64600;BMP280;6553;48.412;9.514;2022-09-09T02:54:14;72028.53;;;23.30
64600;BMP280;6553;48.412;9.514;2022-09-09T02:56:51;72029.72;;;23.28
64600;BMP280;6553;48.412;9.514;2022-09-09T02:59:25;72026.91;;;23.28
64600;BMP280;6553;48.412;9.514;2022-09-09T03:01:53;72031.97;;;23.28
64600;BMP280;6553;48.412;9.514;2022-09-09T03:04:19;72026.91;;;23.28
64600;BMP280;6553;48.412;9.514;2022-09-09T03:06:46;72031.97;;;23.28
64600;BMP280;6553;48.412;9.514;2022-09-09T03:09:17;72025.44;;;23.24
64600;BMP280;6553;48.412;9.514;2022-09-09T03:11:43;72027.59;;;23.26
64600;BMP280;6553;48.412;9.514;2022-09-09T03:14:11;72026.38;;;23.28
64600;BMP280;6553;48.412;9.514;2022-09-09T03:16:37;72027.59;;;23.26
64600;BMP280;6553;48.412;9.514;2022-09-09T03:19:03;72027.59;;;23.26
64600;BMP280;6553;48.412;9.514;2022-09-09T03:21:29;72031.56;;;23.25
64600;BMP280;6553;48.412;9.514;2022-09-09T03:23:55;72028.13;;;23.27
64600;BMP280;6553;48.412;9.514;2022-09-09T03:26:23;72031.44;;;23.27
64600;BMP280;6553;48.412;9.514;2022-09-09T03:28:49;72031.56;;;23.25
64600;BMP280;6553;48.412;9.514;2022-09-09T03:31:18;72029.84;;;23.26
64600;BMP280;6553;48.412;9.514;2022-09-09T03:33:45;72027.59;;;23.26
64600;BMP280;6553;48.412;9.514;2022-09-09T03:36:14;72024.81;;;23.26
64600;BMP280;6553;48.412;9.514;2022-09-09T03:38:41;72023.88;;;23.23
64600;BMP280;6553;48.412;9.514;2022-09-09T03:41:07;72023.22;;;23.25
64600;BMP280;6553;48.412;9.514;2022-09-09T03:43:34;72029.84;;;23.26
64600;BMP280;6553;48.412;9.514;2022-09-09T03:46:00;72027.19;;;23.23
64600;BMP280;6553;48.412;9.514;2022-09-09T03:48:28;72023.22;;;23.25
64600;BMP280;6553;48.412;9.514;2022-09-09T03:50:55;72023.75;;;23.25
64600;BMP280;6553;48.412;9.514;2022-09-09T03:53:27;72023.88;;;23.23
64600;BMP280;6553;48.412;9.514;2022-09-09T03:55:55;72023.22;;;23.25
64600;BMP280;6553;48.412;9.514;2022-09-09T03:58:24;72023.22;;;23.25
64600;BMP280;6553;48.412;9.514;2022-09-09T04:03:20;72019.88;;;23.24
64600;BMP280;6553;48.412;9.514;2022-09-09T04:05:49;72019.88;;;23.24
64600;BMP280;6553;48.412;9.514;2022-09-09T04:08:15;72022.66;;;23.24
64600;BMP280;6553;48.412;9.514;2022-09-09T04:10:40;72023.88;;;23.23
64600;BMP280;6553;48.412;9.514;2022-09-09T04:13:07;72026.00;;;23.25
64600;BMP280;6553;48.412;9.514;2022-09-09T04:15:33;72022.16;;;23.24
64600;BMP280;6553;48.412;9.514;2022-09-09T04:18:01;72028.25;;;23.24
64600;BMP280;6553;48.412;9.514;2022-09-09T04:20:27;72022.16;;;23.24
64600;BMP280;6553;48.412;9.514;2022-09-09T04:22:53;72027.19;;;23.23
64600;BMP280;6553;48.412;9.514;2022-09-09T04:25:18;72024.41;;;23.23
64600;BMP280;6553;48.412;9.514;2022-09-09T04:27:44;72025.06;;;23.21
64600;BMP280;6553;48.412;9.514;2022-09-09T04:30:11;72021.09;;;23.23
64600;BMP280;6553;48.412;9.514;2022-09-09T04:32:39;72023.88;;;23.23
64600;BMP280;6553;48.412;9.514;2022-09-09T04:35:05;72024.94;;;23.24
64600;BMP280;6553;48.412;9.514;2022-09-09T04:37:31;72019.47;;;23.21
64600;BMP280;6553;48.412;9.514;2022-09-09T04:39:58;72022.28;;;23.21
64600;BMP280;6553;48.412;9.514;2022-09-09T04:42:30;72021.75;;;23.21
64600;BMP280;6553;48.412;9.514;2022-09-09T04:44:56;72021.75;;;23.21
64600;BMP280;6553;48.412;9.514;2022-09-09T04:47:22;72027.19;;;23.23
64600;BMP280;6553;48.412;9.514;2022-09-09T04:49:48;72027.19;;;23.23
64600;BMP280;6553;48.412;9.514;2022-09-09T04:52:14;72023.88;;;23.23
64600;BMP280;6553;48.412;9.514;2022-09-09T04:54:43;72022.28;;;23.21
64600;BMP280;6553;48.412;9.514;2022-09-09T04:57:10;72021.09;;;23.23
64600;BMP280;6553;48.412;9.514;2022-09-09T04:59:37;72029.56;;;23.20
64600;BMP280;6553;48.412;9.514;2022-09-09T05:02:03;72025.06;;;23.21
64600;BMP280;6553;48.412;9.514;2022-09-09T05:04:29;72025.06;;;23.21
64600;BMP280;6553;48.412;9.514;2022-09-09T05:06:55;72025.06;;;23.21
64600;BMP280;6553;48.412;9.514;2022-09-09T05:09:22;72023.88;;;23.23
64600;BMP280;6553;48.412;9.514;2022-09-09T05:11:50;72021.75;;;23.21
64600;BMP280;6553;48.412;9.514;2022-09-09T05:14:30;72021.88;;;23.18
64600;BMP280;6553;48.412;9.514;2022-09-09T05:16:56;72015.75;;;23.18
64600;BMP280;6553;48.412;9.514;2022-09-09T05:19:23;72023.59;;;23.17
64600;BMP280;6553;48.412;9.514;2022-09-09T05:21:51;72025.59;;;23.22
64600;BMP280;6553;48.412;9.514;2022-09-09T05:24:21;72025.59;;;23.22
64600;BMP280;6553;48.412;9.514;2022-09-09T05:26:51;72026.25;;;23.20
64600;BMP280;6553;48.412;9.514;2022-09-09T05:29:17;72029.44;;;23.23
64600;BMP280;6553;48.412;9.514;2022-09-09T05:31:45;72024.00;;;23.20
64600;BMP280;6553;48.412;9.514;2022-09-09T05:34:16;72023.47;;;23.20
64600;BMP280;6553;48.412;9.514;2022-09-09T05:36:42;72021.09;;;23.23
64600;BMP280;6553;48.412;9.514;2022-09-09T05:39:08;72024.53;;;23.21
64600;BMP280;6553;48.412;9.514;2022-09-09T05:41:34;72017.88;;;23.20
64600;BMP280;6553;48.412;9.514;2022-09-09T05:44:02;72027.19;;;23.23
64600;BMP280;6553;48.412;9.514;2022-09-09T05:46:32;72023.34;;;23.22
64600;BMP280;6553;48.412;9.514;2022-09-09T05:48:58;72027.72;;;23.24
64600;BMP280;6553;48.412;9.514;2022-09-09T05:51:29;72029.84;;;23.26
64600;BMP280;6553;48.412;9.514;2022-09-09T05:54:02;72024.94;;;23.24
64600;BMP280;6553;48.412;9.514;2022-09-09T05:56:31;72022.66;;;23.24
64600;BMP280;6553;48.412;9.514;2022-09-09T05:58:58;72019.38;;;23.24
64600;BMP280;6553;48.412;9.514;2022-09-09T06:01:32;72026.00;;;23.25
64600;BMP280;6553;48.412;9.514;2022-09-09T06:04:00;72023.75;;;23.25
64600;BMP280;6553;48.412;9.514;2022-09-09T06:06:32;72027.59;;;23.26
64600;BMP280;6553;48.412;9.514;2022-09-09T06:09:04;72028.66;;;23.27
64600;BMP280;6553;48.412;9.514;2022-09-09T06:11:36;72030.91;;;23.27
64600;BMP280;6553;48.412;9.514;2022-09-09T06:14:04;72027.59;;;23.26
64600;BMP280;6553;48.412;9.514;2022-09-09T06:16:31;72027.59;;;23.26
64600;BMP280;6553;48.412;9.514;2022-09-09T06:18:59;72029.16;;;23.28
64600;BMP280;6553;48.412;9.514;2022-09-09T06:21:33;72025.88;;;23.27
64600;BMP280;6553;48.412;9.514;2022-09-09T06:24:01;72029.72;;;23.28
64600;BMP280;6553;48.412;9.514;2022-09-09T06:26:31;72029.16;;;23.28
64600;BMP280;6553;48.412;9.514;2022-09-09T06:29:01;72024.94;;;23.24
64600;BMP280;6553;48.412;9.514;2022-09-09T06:31:31;72029.72;;;23.28
64600;BMP280;6553;48.412;9.514;2022-09-09T06:34:06;72024.81;;;23.26
64600;BMP280;6553;48.412;9.514;2022-09-09T06:36:38;72032.50;;;23.28
64600;BMP280;6553;48.412;9.514;2022-09-09T06:39:06;72031.84;;;23.30
64600;BMP280;6553;48.412;9.514;2022-09-09T06:41:33;72031.84;;;23.30
64600;BMP280;6553;48.412;9.514;2022-09-09T06:44:00;72032.88;;;23.31
64600;BMP280;6553;48.412;9.514;2022-09-09T06:46:37;72037.28;;;23.33
64600;BMP280;6553;48.412;9.514;2022-09-09T06:49:04;72034.50;;;23.33
64600;BMP280;6553;48.412;9.514;2022-09-09T06:51:34;72036.09;;;23.34
64600;BMP280;6553;48.412;9.514;2022-09-09T06:54:04;72037.16;;;23.35
64600;BMP280;6553;48.412;9.514;2022-09-09T06:56:37;72033.31;;;23.34
64600;BMP280;6553;48.412;9.514;2022-09-09T06:59:10;72035.44;;;23.36
64600;BMP280;6553;48.412;9.514;2022-09-09T07:01:40;72043.66;;;23.39
64600;BMP280;6553;48.412;9.514;2022-09-09T07:04:10;72040.22;;;23.41
64600;BMP280;6553;48.412;9.514;2022-09-09T07:06:42;72046.31;;;23.41
64600;BMP280;6553;48.412;9.514;2022-09-09T07:09:16;72047.53;;;23.40
64600;BMP280;6553;48.412;9.514;2022-09-09T07:11:50;72041.41;;;23.39
64600;BMP280;6553;48.412;9.514;2022-09-09T07:14:19;72047.53;;;23.40
64600;BMP280;6553;48.412;9.514;2022-09-09T07:16:48;72041.94;;;23.40
64600;BMP280;6553;48.412;9.514;2022-09-09T07:19:16;72039.69;;;23.40
64600;BMP280;6553;48.412;9.514;2022-09-09T07:21:43;72043.03;;;23.41
64600;BMP280;6553;48.412;9.514;2022-09-09T07:24:12;72046.97;;;23.39
64600;BMP280;6553;48.412;9.514;2022-09-09T07:26:40;72045.81;;;23.41
64600;BMP280;6553;48.412;9.514;2022-09-09T07:29:08;72046.84;;;23.42
64600;BMP280;6553;48.412;9.514;2022-09-09T07:31:37;72040.22;;;23.41
64600;BMP280;6553;48.412;9.514;2022-09-09T07:34:08;72043.53;;;23.41
64600;BMP280;6553;48.412;9.514;2022-09-09T07:36:37;72041.81;;;23.42
64600;BMP280;6553;48.412;9.514;2022-09-09T07:39:09;72046.84;;;23.42
64600;BMP280;6553;48.412;9.514;2022-09-09T07:41:46;72050.31;;;23.50
64600;BMP280;6553;48.412;9.514;2022-09-09T07:44:23;72054.72;;;23.52
64600;BMP280;6553;48.412;9.514;2022-09-09T07:47:10;72054.28;;;23.49
64600;BMP280;6553;48.412;9.514;2022-09-09T07:49:41;72049.78;;;23.50
64600;BMP280;6553;48.412;9.514;2022-09-09T07:52:07;72049.00;;;23.44
64600;BMP280;6553;48.412;9.514;2022-09-09T07:54:34;72054.97;;;23.47
64600;BMP280;6553;48.412;9.514;2022-09-09T07:57:04;72053.78;;;23.48
64600;BMP280;6553;48.412;9.514;2022-09-09T07:59:31;72047.69;;;23.48
64600;BMP280;6553;48.412;9.514;2022-09-09T08:01:58;72055.50;;;23.47
64600;BMP280;6553;48.412;9.514;2022-09-09T08:04:27;72051.00;;;23.48
64600;BMP280;6553;48.412;9.514;2022-09-09T08:07:00;72056.56;;;23.48
64600;BMP280;6553;48.412;9.514;2022-09-09T08:09:28;72049.94;;;23.47
64600;BMP280;6553;48.412;9.514;2022-09-09T08:11:59;72053.25;;;23.48
64600;BMP280;6553;48.412;9.514;2022-09-09T08:14:26;72049.78;;;23.50
64600;BMP280;6553;48.412;9.514;2022-09-09T08:16:53;72050.19;;;23.53
64600;BMP280;6553;48.412;9.514;2022-09-09T08:19:22;72064.00;;;23.55
64600;BMP280;6553;48.412;9.514;2022-09-09T08:21:49;72052.44;;;23.52
64600;BMP280;6553;48.412;9.514;2022-09-09T08:24:16;72057.91;;;23.55
64600;BMP280;6553;48.412;9.514;2022-09-09T08:26:47;72062.78;;;23.57
64600;BMP280;6553;48.412;9.514;2022-09-09T08:29:20;72062.16;;;23.59
64600;BMP280;6553;48.412;9.514;2022-09-09T08:31:54;72064.94;;;23.59
64600;BMP280;6553;48.412;9.514;2022-09-09T08:34:23;72064.94;;;23.59
64600;BMP280;6553;48.412;9.514;2022-09-09T08:36:51;72064.94;;;23.59
64600;BMP280;6553;48.412;9.514;2022-09-09T08:39:21;72063.88;;;23.58
64600;BMP280;6553;48.412;9.514;2022-09-09T08:42:17;72062.66;;;23.59
64600;BMP280;6553;48.412;9.514;2022-09-09T08:45:09;72069.31;;;23.60
64600;BMP280;6553;48.412;9.514;2022-09-09T08:48:04;72058.94;;;23.56
64600;BMP280;6553;48.412;9.514;2022-09-09T08:50:39;72057.75;;;23.57
64600;BMP280;6553;48.412;9.514;2022-09-09T08:53:23;72055.13;;;23.55
64600;BMP280;6553;48.412;9.514;2022-09-09T08:56:10;72060.00;;;23.57
64600;BMP280;6553;48.412;9.514;2022-09-09T08:58:50;72060.56;;;23.57
64600;BMP280;6553;48.412;9.514;2022-09-09T09:01:55;72064.94;;;23.59
64600;BMP280;6553;48.412;9.514;2022-09-09T09:05:00;72063.88;;;23.58
64600;BMP280;6553;48.412;9.514;2022-09-09T09:07:46;72064.41;;;23.58
64600;BMP280;6553;48.412;9.514;2022-09-09T09:10:46;72056.06;;;23.58
64600;BMP280;6553;48.412;9.514;2022-09-09T09:13:58;72055.75;;;23.53
64600;BMP280;6553;48.412;9.514;2022-09-09T09:19:15;72064.41;;;23.58
64600;BMP280;6553;48.412;9.514;2022-09-09T09:21:48;72066.53;;;23.60
64600;BMP280;6553;48.412;9.514;2022-09-09T09:24:28;72062.16;;;23.59
64600;BMP280;6553;48.412;9.514;2022-09-09T09:27:10;72063.19;;;23.60
64600;BMP280;6553;48.412;9.514;2022-09-09T09:29:40;72067.75;;;23.59
64600;BMP280;6553;48.412;9.514;2022-09-09T09:32:14;72062.56;;;23.62
64600;BMP280;6553;48.412;9.514;2022-09-09T09:34:41;72061.47;;;23.61
64600;BMP280;6553;48.412;9.514;2022-09-09T09:37:26;72065.88;;;23.63
64600;BMP280;6553;48.412;9.514;2022-09-09T09:39:54;72061.34;;;23.63
64600;BMP280;6553;48.412;9.514;2022-09-09T09:42:20;72069.31;;;23.60
64600;BMP280;6553;48.412;9.514;2022-09-09T09:44:47;72075.16;;;23.66
64600;BMP280;6553;48.412;9.514;2022-09-09T09:47:22;72065.22;;;23.64
64600;BMP280;6553;48.412;9.514;2022-09-09T09:50:02;72072.91;;;23.67
64600;BMP280;6553;48.412;9.514;2022-09-09T09:52:33;72071.84;;;23.66
64600;BMP280;6553;48.412;9.514;2022-09-09T09:55:04;72068.53;;;23.65
64600;BMP280;6553;48.412;9.514;2022-09-09T09:57:38;72067.47;;;23.64
64600;BMP280;6553;48.412;9.514;2022-09-09T10:00:21;72068.13;;;23.62
64600;BMP280;6553;48.412;9.514;2022-09-09T10:03:00;72070.25;;;23.64
64600;BMP280;6553;48.412;9.514;2022-09-09T10:05:31;72064.13;;;23.63
64600;BMP280;6553;48.412;9.514;2022-09-09T10:13:26;72070.25;;;23.64
64600;BMP280;6553;48.412;9.514;2022-09-09T10:19:09;72073.97;;;23.67
64600;BMP280;6553;48.412;9.514;2022-09-09T10:21:53;72073.97;;;23.67
64600;BMP280;6553;48.412;9.514;2022-09-09T10:30:18;72075.16;;;23.66
64600;BMP280;6553;48.412;9.514;2022-09-09T10:33:09;72069.47;;;23.69
64600;BMP280;6553;48.412;9.514;2022-09-09T10:35:49;72073.44;;;23.67
64600;BMP280;6553;48.412;9.514;2022-09-09T10:38:36;72069.06;;;23.66
64600;BMP280;6553;48.412;9.514;2022-09-09T10:53:53;72074.25;;;23.73
64600;BMP280;6553;48.412;9.514;2022-09-09T10:56:23;72073.72;;;23.73
64600;BMP280;6553;48.412;9.514;2022-09-09T11:01:49;72074.91;;;23.71
64600;BMP280;6553;48.412;9.514;2022-09-09T11:04:34;72074.34;;;23.71
64600;BMP280;6553;48.412;9.514;2022-09-09T11:07:09;72073.84;;;23.70
64600;BMP280;6553;48.412;9.514;2022-09-09T11:09:45;72081.16;;;23.69
64600;BMP280;6553;48.412;9.514;2022-09-09T11:12:19;72082.59;;;23.73
64600;BMP280;6553;48.412;9.514;2022-09-09T11:14:59;72080.88;;;23.74
64600;BMP280;6553;48.412;9.514;2022-09-09T11:17:39;72081.94;;;23.75
64600;BMP280;6553;48.412;9.514;2022-09-09T11:20:11;72079.81;;;23.73
64600;BMP280;6553;48.412;9.514;2022-09-09T11:22:51;72084.88;;;23.73
64600;BMP280;6553;48.412;9.514;2022-09-09T11:25:26;72073.19;;;23.72
64600;BMP280;6553;48.412;9.514;2022-09-09T11:40:18;72076.50;;;23.73
64600;BMP280;6553;48.412;9.514;2022-09-09T11:42:46;72077.28;;;23.68
64600;BMP280;6553;48.412;9.514;2022-09-09T11:45:27;72074.91;;;23.71
64600;BMP280;6553;48.412;9.514;2022-09-09T11:48:00;72072.66;;;23.72
64600;BMP280;6553;48.412;9.514;2022-09-09T11:50:36;72078.22;;;23.72
64600;BMP280;6553;48.412;9.514;2022-09-09T11:53:21;72077.28;;;23.68
64600;BMP280;6553;48.412;9.514;2022-09-09T11:56:06;72067.84;;;23.67
64600;BMP280;6553;48.412;9.514;2022-09-09T11:59:00;72071.72;;;23.68
64600;BMP280;6553;48.412;9.514;2022-09-09T12:01:39;72078.22;;;23.72
64600;BMP280;6553;48.412;9.514;2022-09-09T12:04:40;72067.22;;;23.69
64600;BMP280;6553;48.412;9.514;2022-09-09T12:09:43;72076.09;;;23.70
64600;BMP280;6553;48.412;9.514;2022-09-09T12:19:40;72076.63;;;23.70
64600;BMP280;6553;48.412;9.514;2022-09-09T12:33:18;72075.56;;;23.69
64600;BMP280;6553;48.412;9.514;2022-09-09T12:35:53;72073.84;;;23.70
64600;BMP280;6553;48.412;9.514;2022-09-09T12:38:41;72074.91;;;23.71
64600;BMP280;6553;48.412;9.514;2022-09-09T12:41:24;72074.78;;;23.74
64600;BMP280;6553;48.412;9.514;2022-09-09T12:43:51;72075.97;;;23.72
64600;BMP280;6553;48.412;9.514;2022-09-09T12:46:42;72069.47;;;23.69
64600;BMP280;6553;48.412;9.514;2022-09-09T12:51:53;72071.56;;;23.71
64600;BMP280;6553;48.412;9.514;2022-09-09T12:54:19;72071.56;;;23.71
64600;BMP280;6553;48.412;9.514;2022-09-09T12:56:47;72078.22;;;23.72
64600;BMP280;6553;48.412;9.514;2022-09-09T12:59:27;72075.44;;;23.72
64600;BMP280;6553;48.412;9.514;2022-09-09T13:02:00;72076.63;;;23.70
64600;BMP280;6553;48.412;9.514;2022-09-09T13:04:26;72069.31;;;23.71
64600;BMP280;6553;48.412;9.514;2022-09-09T13:06:52;72074.78;;;23.74
64600;BMP280;6553;48.412;9.514;2022-09-09T13:09:19;72082.88;;;23.79
64600;BMP280;6553;48.412;9.514;2022-09-09T13:11:55;72081.28;;;23.77
64600;BMP280;6553;48.412;9.514;2022-09-09T13:14:32;72080.34;;;23.74
64600;BMP280;6553;48.412;9.514;2022-09-09T13:17:03;72073.84;;;23.70
64600;BMP280;6553;48.412;9.514;2022-09-09T13:19:35;72066.13;;;23.68
64600;BMP280;6553;48.412;9.514;2022-09-09T13:24:47;72076.63;;;23.70
64600;BMP280;6553;48.412;9.514;2022-09-09T13:27:31;72079.31;;;23.73
64600;BMP280;6553;48.412;9.514;2022-09-09T13:30:00;72080.88;;;23.74
64600;BMP280;6553;48.412;9.514;2022-09-09T13:32:27;72074.78;;;23.74
64600;BMP280;6553;48.412;9.514;2022-09-09T13:34:59;72078.75;;;23.72
64600;BMP280;6553;48.412;9.514;2022-09-09T13:37:38;72077.69;;;23.71
64600;BMP280;6553;48.412;9.514;2022-09-09T13:40:19;72075.03;;;23.69
64600;BMP280;6553;48.412;9.514;2022-09-09T13:42:55;72079.41;;;23.70
64600;BMP280;6553;48.412;9.514;2022-09-09T13:45:25;72070.53;;;23.70
64600;BMP280;6553;48.412;9.514;2022-09-09T13:47:55;72075.03;;;23.69
64600;BMP280;6553;48.412;9.514;2022-09-09T13:50:23;72070.13;;;23.67
64600;BMP280;6553;48.412;9.514;2022-09-09T13:52:52;72074.34;;;23.71
64600;BMP280;6553;48.412;9.514;2022-09-09T13:55:20;72073.31;;;23.70
64600;BMP280;6553;48.412;9.514;2022-09-09T13:58:02;72073.19;;;23.72
64600;BMP280;6553;48.412;9.514;2022-09-09T14:00:34;72077.69;;;23.71
64600;BMP280;6553;48.412;9.514;2022-09-09T14:03:00;72077.69;;;23.71
64600;BMP280;6553;48.412;9.514;2022-09-09T14:05:31;72078.22;;;23.72
64600;BMP280;6553;48.412;9.514;2022-09-09T14:07:58;72077.03;;;23.73
64600;BMP280;6553;48.412;9.514;2022-09-09T14:10:26;72079.81;;;23.73
64600;BMP280;6553;48.412;9.514;2022-09-09T14:12:51;72078.09;;;23.74
64600;BMP280;6553;48.412;9.514;2022-09-09T14:15:18;72076.50;;;23.73
64600;BMP280;6553;48.412;9.514;2022-09-09T14:17:44;72075.28;;;23.74
64600;BMP280;6553;48.412;9.514;2022-09-09T14:20:11;72079.16;;;23.75
64600;BMP280;6553;48.412;9.514;2022-09-09T14:22:37;72072.50;;;23.74
64600;BMP280;6553;48.412;9.514;2022-09-09T14:25:05;72075.84;;;23.75
64600;BMP280;6553;48.412;9.514;2022-09-09T14:27:31;72081.41;;;23.75
64600;BMP280;6553;48.412;9.514;2022-09-09T14:29:58;72072.00;;;23.74
64600;BMP280;6553;48.412;9.514;2022-09-09T14:32:26;72080.88;;;23.74
64600;BMP280;6553;48.412;9.514;2022-09-09T14:34:52;72075.28;;;23.74
64600;BMP280;6553;48.412;9.514;2022-09-09T14:37:18;72081.53;;;23.72
64600;BMP280;6553;48.412;9.514;2022-09-09T14:39:44;72077.69;;;23.71
64600;BMP280;6553;48.412;9.514;2022-09-09T14:42:13;72076.50;;;23.73
64600;BMP280;6553;48.412;9.514;2022-09-09T14:44:38;72072.09;;;23.71
64600;BMP280;6553;48.412;9.514;2022-09-09T14:47:05;72077.56;;;23.74
64600;BMP280;6553;48.412;9.514;2022-09-09T14:49:31;72076.63;;;23.70
64600;BMP280;6553;48.412;9.514;2022-09-09T14:51:57;72081.16;;;23.69
64600;BMP280;6553;48.412;9.514;2022-09-09T14:54:23;72080.34;;;23.74
64600;BMP280;6553;48.412;9.514;2022-09-09T14:56:49;72077.69;;;23.71
64600;BMP280;6553;48.412;9.514;2022-09-09T14:59:15;72073.19;;;23.72
64600;BMP280;6553;48.412;9.514;2022-09-09T15:01:40;72078.09;;;23.74
64600;BMP280;6553;48.412;9.514;2022-09-09T15:04:07;72072.66;;;23.72
64600;BMP280;6553;48.412;9.514;2022-09-09T15:06:35;72075.44;;;23.72
64600;BMP280;6553;48.412;9.514;2022-09-09T15:09:04;72079.94;;;23.71
64600;BMP280;6553;48.412;9.514;2022-09-09T15:11:35;72079.94;;;23.71
64600;BMP280;6553;48.412;9.514;2022-09-09T15:14:04;72074.91;;;23.71
64600;BMP280;6553;48.412;9.514;2022-09-09T15:16:31;72074.91;;;23.71
64600;BMP280;6553;48.412;9.514;2022-09-09T15:19:00;72074.78;;;23.74
64600;BMP280;6553;48.412;9.514;2022-09-09T15:21:31;72079.31;;;23.73
64600;BMP280;6553;48.412;9.514;2022-09-09T15:23:58;72077.69;;;23.71
64600;BMP280;6553;48.412;9.514;2022-09-09T15:26:26;72077.03;;;23.73
64600;BMP280;6553;48.412;9.514;2022-09-09T15:28:53;72079.31;;;23.73
64600;BMP280;6553;48.412;9.514;2022-09-09T15:31:23;72075.97;;;23.72
64600;BMP280;6553;48.412;9.514;2022-09-09T15:34:00;72073.84;;;23.70
64600;BMP280;6553;48.412;9.514;2022-09-09T15:36:37;72079.31;;;23.73
64600;BMP280;6553;48.412;9.514;2022-09-09T15:39:10;72075.44;;;23.72
64600;BMP280;6553;48.412;9.514;2022-09-09T15:41:39;72071.06;;;23.70
64600;BMP280;6553;48.412;9.514;2022-09-09T15:44:06;72072.78;;;23.69
64600;BMP280;6553;48.412;9.514;2022-09-09T15:46:32;72074.34;;;23.71
64600;BMP280;6553;48.412;9.514;2022-09-09T15:49:17;72074.91;;;23.71
64600;BMP280;6553;48.412;9.514;2022-09-09T15:51:53;72073.84;;;23.70
64600;BMP280;6553;48.412;9.514;2022-09-09T15:54:22;72069.47;;;23.69
64600;BMP280;6553;48.412;9.514;2022-09-09T15:56:55;72080.47;;;23.71
64600;BMP280;6553;48.412;9.514;2022-09-09T15:59:26;72071.19;;;23.67
64600;BMP280;6553;48.412;9.514;2022-09-09T16:01:53;72073.31;;;23.70
64600;BMP280;6553;48.412;9.514;2022-09-09T16:04:22;72068.38;;;23.67
64600;BMP280;6553;48.412;9.514;2022-09-09T16:06:59;72076.09;;;23.70
64600;BMP280;6553;48.412;9.514;2022-09-09T16:09:27;72069.47;;;23.69
64600;BMP280;6553;48.412;9.514;2022-09-09T16:11:58;72073.97;;;23.67
64600;BMP280;6553;48.412;9.514;2022-09-09T16:14:24;72069.06;;;23.66
64600;BMP280;6553;48.412;9.514;2022-09-09T16:16:51;72064.66;;;23.64
64600;BMP280;6553;48.412;9.514;2022-09-09T16:19:17;72065.75;;;23.65
64600;BMP280;6553;48.412;9.514;2022-09-09T16:21:49;72067.47;;;23.64
64600;BMP280;6553;48.412;9.514;2022-09-09T16:24:18;72065.34;;;23.62
64600;BMP280;6553;48.412;9.514;2022-09-09T16:26:48;72069.06;;;23.66
64600;BMP280;6553;48.412;9.514;2022-09-09T16:29:17;72069.06;;;23.66
64600;BMP280;6553;48.412;9.514;2022-09-09T16:31:45;72066.38;;;23.63
64600;BMP280;6553;48.412;9.514;2022-09-09T16:34:13;72065.75;;;23.65
64600;BMP280;6553;48.412;9.514;2022-09-09T16:36:41;72068.53;;;23.65